createdAt,value
2018-09-12T00:00:56.923Z,53.21
2018-09-12T00:03:25.504Z,53.33
2018-09-12T00:05:54.754Z,53.19
2018-09-12T00:08:23.644Z,53.31
2018-09-12T00:10:52.232Z,53.56
2018-09-12T00:13:20.794Z,53.60
2018-09-12T00:15:49.487Z,53.67
2018-09-12T00:18:18.319Z,53.65
2018-09-12T00:20:46.876Z,53.67
2018-09-12T00:23:15.472Z,53.87
2018-09-12T00:25:44.072Z,54.12
2018-09-12T00:28:12.639Z,53.96
2018-09-12T00:30:41.611Z,54.24
2018-09-12T00:33:10.184Z,54.22
2018-09-12T00:35:38.791Z,54.33
2018-09-12T00:38:07.451Z,54.19
2018-09-12T00:40:36.075Z,54.39
2018-09-12T00:43:04.655Z,54.22
2018-09-12T00:45:33.342Z,54.28
2018-09-12T00:48:01.895Z,54.33
2018-09-12T00:50:30.450Z,54.32
2018-09-12T00:52:59.104Z,54.24
2018-09-12T00:55:27.667Z,54.43
2018-09-12T00:57:56.678Z,54.70
2018-09-12T01:00:25.263Z,54.83
2018-09-12T01:02:53.827Z,54.97
2018-09-12T01:05:22.388Z,55.04
2018-09-12T01:07:51.020Z,55.18
2018-09-12T01:10:19.568Z,54.63
2018-09-12T01:12:48.129Z,55.00
2018-09-12T01:15:16.915Z,55.08
2018-09-12T01:17:45.471Z,54.66
2018-09-12T01:20:14.033Z,55.16
2018-09-12T01:22:42.620Z,55.47
2018-09-12T01:25:11.196Z,55.04
2018-09-12T01:27:39.771Z,54.82
2018-09-12T01:30:10.903Z,55.32
2018-09-12T01:32:39.449Z,54.95
2018-09-12T01:35:08.039Z,55.19
2018-09-12T01:37:36.656Z,55.66
2018-09-12T01:40:05.255Z,55.08
2018-09-12T01:42:33.811Z,54.89
2018-09-12T01:45:02.473Z,54.86
2018-09-12T01:47:31.036Z,55.17
2018-09-12T01:49:59.599Z,54.98
2018-09-12T01:52:28.883Z,55.22
2018-09-12T01:54:57.427Z,55.05
2018-09-12T01:57:25.980Z,54.85
2018-09-12T01:59:54.657Z,54.64
2018-09-12T02:02:23.216Z,54.90
2018-09-12T02:04:51.766Z,54.90
2018-09-12T02:07:20.413Z,55.07
2018-09-12T02:09:48.985Z,55.15
2018-09-12T02:12:17.544Z,55.36
2018-09-12T02:14:46.207Z,55.13
2018-09-12T02:17:14.760Z,55.07
2018-09-12T02:19:43.316Z,55.30
2018-09-12T02:22:12.071Z,55.67
2018-09-12T02:24:41.001Z,55.35
2018-09-12T02:27:09.552Z,55.59
2018-09-12T02:29:38.159Z,55.63
2018-09-12T02:32:06.721Z,55.43
2018-09-12T02:34:35.280Z,56.01
2018-09-12T02:37:03.908Z,56.05
2018-09-12T02:39:32.463Z,56.08
2018-09-12T02:42:01.029Z,56.13
2018-09-12T02:44:29.852Z,56.53
2018-09-12T02:46:58.428Z,56.41
2018-09-12T02:49:26.984Z,56.17
2018-09-12T02:51:55.563Z,56.71
2018-09-12T02:54:24.115Z,56.67
2018-09-12T02:56:52.663Z,56.56
2018-09-12T02:59:21.576Z,56.52
2018-09-12T03:01:50.135Z,56.69
2018-09-12T03:04:18.723Z,56.66
2018-09-12T03:06:47.395Z,56.77
2018-09-12T03:09:15.956Z,56.91
2018-09-12T03:11:44.528Z,56.70
2018-09-12T03:14:14.911Z,56.63
2018-09-12T03:16:43.478Z,56.69
2018-09-12T03:19:12.032Z,56.97
2018-09-12T03:21:40.987Z,56.99
2018-09-12T03:24:09.919Z,57.11
2018-09-12T03:26:38.515Z,57.23
2018-09-12T03:29:07.136Z,57.27
2018-09-12T03:31:35.723Z,57.28
2018-09-12T03:34:04.290Z,57.46
2018-09-12T03:36:32.991Z,57.54
2018-09-12T03:39:01.554Z,57.40
2018-09-12T03:41:30.153Z,57.28
2018-09-12T03:43:58.728Z,57.28
2018-09-12T03:46:27.295Z,57.36
2018-09-12T03:48:55.906Z,57.52
2018-09-12T03:51:24.599Z,57.51
2018-09-12T03:53:53.149Z,57.39
2018-09-12T03:56:21.712Z,57.57
2018-09-12T03:58:50.297Z,57.29
2018-09-12T04:01:18.866Z,57.52
2018-09-12T04:03:47.479Z,57.58
2018-09-12T04:06:16.204Z,57.76
2018-09-12T04:08:44.756Z,57.91
2018-09-12T04:11:13.320Z,57.99
2018-09-12T04:13:41.928Z,58.10
2018-09-12T04:16:10.755Z,58.15
2018-09-12T04:18:39.307Z,58.19
2018-09-12T04:21:07.991Z,58.25
2018-09-12T04:23:36.544Z,58.15
2018-09-12T04:26:05.136Z,58.17
2018-09-12T04:28:33.720Z,58.03
2018-09-12T04:31:02.282Z,58.11
2018-09-12T04:33:30.830Z,58.09
2018-09-12T04:35:59.475Z,58.36
2018-09-12T04:38:28.059Z,58.37
2018-09-12T04:40:56.615Z,58.44
2018-09-12T04:43:25.407Z,58.76
2018-09-12T04:45:53.964Z,58.36
2018-09-12T04:48:22.552Z,58.12
2018-09-12T04:50:51.136Z,58.24
2018-09-12T04:53:19.727Z,58.20
2018-09-12T04:55:48.286Z,58.05
2018-09-12T04:58:17.207Z,58.17
2018-09-12T05:00:45.775Z,58.16
2018-09-12T05:03:14.399Z,58.06
2018-09-12T05:05:43.374Z,58.04
2018-09-12T05:08:11.941Z,58.10
2018-09-12T05:10:40.507Z,58.08
2018-09-12T05:13:09.083Z,58.00
2018-09-12T05:15:37.644Z,58.14
2018-09-12T05:18:06.240Z,57.83
2018-09-12T05:20:34.812Z,57.75
2018-09-12T05:23:03.377Z,57.83
2018-09-12T05:25:31.941Z,57.60
2018-09-12T05:28:00.596Z,57.70
2018-09-12T05:30:29.176Z,57.70
2018-09-12T05:32:57.731Z,57.46
2018-09-12T05:35:26.397Z,57.57
2018-09-12T05:37:54.977Z,57.52
2018-09-12T05:40:23.520Z,57.18
2018-09-12T05:42:52.179Z,56.98
2018-09-12T05:45:20.836Z,56.61
2018-09-12T05:47:49.382Z,56.37
2018-09-12T05:50:18.150Z,56.00
2018-09-12T05:52:46.639Z,55.61
2018-09-12T05:55:15.199Z,55.16
2018-09-12T05:57:44.596Z,54.84
2018-09-12T06:00:13.192Z,54.23
2018-09-12T06:02:41.767Z,53.43
2018-09-12T06:05:10.760Z,52.84
2018-09-12T06:07:39.316Z,52.12
2018-09-12T06:10:07.927Z,51.82
2018-09-12T06:12:36.617Z,51.43
2018-09-12T06:15:05.247Z,51.11
2018-09-12T06:17:33.803Z,50.62
2018-09-12T06:20:02.392Z,50.42
2018-09-12T06:22:30.951Z,50.16
2018-09-12T06:24:59.516Z,49.17
2018-09-12T06:27:28.172Z,49.30
2018-09-12T06:29:56.727Z,48.13
2018-09-12T06:32:25.720Z,48.28
2018-09-12T06:34:54.319Z,46.95
2018-09-12T06:37:22.884Z,46.48
2018-09-12T06:39:51.425Z,46.15
2018-09-12T06:42:20.072Z,45.82
2018-09-12T06:44:48.735Z,45.45
2018-09-12T06:47:17.203Z,44.20
2018-09-12T06:49:49.038Z,43.87
2018-09-12T06:52:20.096Z,43.27
2018-09-12T06:54:49.187Z,43.10
2018-09-12T06:57:17.787Z,42.92
2018-09-12T06:59:46.349Z,41.96
2018-09-12T07:02:14.929Z,41.09
2018-09-12T07:04:43.491Z,40.65
2018-09-12T07:07:12.063Z,40.41
2018-09-12T07:09:40.651Z,40.74
2018-09-12T07:12:09.218Z,40.16
2018-09-12T07:14:37.822Z,38.96
2018-09-12T07:17:07.000Z,38.86
2018-09-12T07:19:35.559Z,38.54
2018-09-12T07:22:04.548Z,36.85
2018-09-12T07:24:33.275Z,36.50
2018-09-12T07:27:01.780Z,36.22
2018-09-12T07:29:30.339Z,35.39
2018-09-12T07:31:59.247Z,35.39
2018-09-12T07:34:28.324Z,35.22
2018-09-12T07:36:56.979Z,35.09
2018-09-12T07:39:25.583Z,34.95
2018-09-12T07:41:54.191Z,34.64
2018-09-12T07:44:22.751Z,34.42
2018-09-12T07:46:51.352Z,34.15
2018-09-12T07:49:19.896Z,34.40
2018-09-12T07:51:48.447Z,34.47
2018-09-12T07:54:17.124Z,34.20
2018-09-12T07:56:45.731Z,33.79
2018-09-12T07:59:14.248Z,34.03
2018-09-12T08:01:42.904Z,33.07
2018-09-12T08:04:11.461Z,32.62
2018-09-12T08:06:40.016Z,32.60
2018-09-12T08:09:11.244Z,32.16
2018-09-12T08:11:39.954Z,32.00
2018-09-12T08:14:08.504Z,31.69
2018-09-12T08:16:37.091Z,31.33
2018-09-12T08:19:05.791Z,30.39
2018-09-12T08:21:34.323Z,30.25
2018-09-12T08:24:03.315Z,29.96
2018-09-12T08:26:31.868Z,29.84
2018-09-12T08:29:00.419Z,29.69
2018-09-12T08:31:29.012Z,29.26
2018-09-12T08:33:57.562Z,29.06
2018-09-12T08:36:26.168Z,28.12
2018-09-12T08:38:54.987Z,28.70
2018-09-12T08:41:24.115Z,28.53
2018-09-12T08:43:52.663Z,27.02
2018-09-12T08:46:21.247Z,28.03
2018-09-12T08:48:50.536Z,27.18
2018-09-12T08:51:19.111Z,27.19
2018-09-12T08:53:47.776Z,26.02
2018-09-12T08:56:17.288Z,25.89
2018-09-12T08:58:45.826Z,25.47
2018-09-12T09:01:14.649Z,24.40
2018-09-12T09:03:43.960Z,24.67
2018-09-12T09:06:12.540Z,24.59
2018-09-12T09:08:41.307Z,23.99
2018-09-12T09:11:09.933Z,23.52
2018-09-12T09:13:38.479Z,23.57
2018-09-12T09:16:07.143Z,22.84
2018-09-12T09:18:35.699Z,22.88
2018-09-12T09:21:04.259Z,22.79
2018-09-12T09:23:33.939Z,22.19
2018-09-12T09:26:02.504Z,22.45
2018-09-12T09:28:31.052Z,21.64
2018-09-12T09:31:00.919Z,21.14
2018-09-12T09:33:29.485Z,20.86
2018-09-12T09:35:58.156Z,21.30
2018-09-12T09:38:26.759Z,21.57
2018-09-12T09:40:55.307Z,20.25
2018-09-12T09:43:23.860Z,19.84
2018-09-12T09:45:52.550Z,19.20
2018-09-12T09:48:21.173Z,18.88
2018-09-12T09:50:49.700Z,18.79
2018-09-12T09:53:18.468Z,18.58
2018-09-12T09:55:47.024Z,19.28
2018-09-12T09:58:15.623Z,19.27
2018-09-12T10:00:49.603Z,18.41
2018-09-12T10:04:27.512Z,18.58
2018-09-12T10:07:00.156Z,18.25
2018-09-12T10:09:31.006Z,18.38
2018-09-12T10:12:00.858Z,18.41
2018-09-12T10:14:29.731Z,18.12
2018-09-12T10:16:58.286Z,18.39
2018-09-12T10:19:27.063Z,18.40
2018-09-12T10:21:55.611Z,17.92
2018-09-12T10:24:24.247Z,18.26
2018-09-12T10:26:52.802Z,17.33
2018-09-12T10:29:21.772Z,17.23
2018-09-12T10:31:50.395Z,17.92
2018-09-12T10:34:19.072Z,17.74
2018-09-12T10:36:48.058Z,17.11
2018-09-12T10:39:16.628Z,16.96
2018-09-12T10:41:45.240Z,16.99
2018-09-12T10:44:13.860Z,16.43
2018-09-12T10:46:42.404Z,16.70
2018-09-12T10:49:11.106Z,16.33
2018-09-12T10:51:39.640Z,16.75
2018-09-12T10:54:08.219Z,16.64
2018-09-12T10:56:37.159Z,17.26
2018-09-12T10:59:05.766Z,17.00
2018-09-12T11:01:34.295Z,17.31
2018-09-12T11:04:02.860Z,17.09
2018-09-12T11:06:31.395Z,17.43
2018-09-12T11:09:00.056Z,18.08
2018-09-12T11:11:28.632Z,19.26
2018-09-12T11:13:57.183Z,19.77
2018-09-12T11:16:25.764Z,19.75
2018-09-12T11:18:55.188Z,18.09
2018-09-12T11:21:23.737Z,16.64
2018-09-12T11:23:52.336Z,15.32
2018-09-12T11:26:20.943Z,12.75
2018-09-12T11:28:49.672Z,11.21
2018-09-12T11:31:18.211Z,11.12
2018-09-12T11:33:47.363Z,11.12
2018-09-12T11:36:16.055Z,10.80
2018-09-12T11:38:44.648Z,10.96
2018-09-12T11:41:13.315Z,12.47
2018-09-12T11:43:41.875Z,13.58
2018-09-12T11:46:10.896Z,15.30
2018-09-12T11:48:39.552Z,15.68
2018-09-12T11:51:08.123Z,13.81
2018-09-12T11:53:36.684Z,12.33
2018-09-12T11:56:05.367Z,11.89
2018-09-12T11:58:33.931Z,11.69
2018-09-12T12:01:02.483Z,10.73
2018-09-12T12:03:31.061Z,12.74
2018-09-12T12:05:59.651Z,13.76
2018-09-12T12:08:28.195Z,14.60
2018-09-12T12:10:56.784Z,16.52
2018-09-12T12:13:25.328Z,17.34
2018-09-12T12:15:53.875Z,18.70
2018-09-12T12:18:22.456Z,18.18
2018-09-12T12:20:51.006Z,18.59
2018-09-12T12:23:19.630Z,18.36
2018-09-12T12:25:48.212Z,19.68
2018-09-12T12:28:16.769Z,19.97
2018-09-12T12:30:45.324Z,20.16
2018-09-12T12:33:14.204Z,20.78
2018-09-12T12:35:42.768Z,20.27
2018-09-12T12:38:11.335Z,21.12
2018-09-12T12:40:40.035Z,21.14
2018-09-12T12:43:08.589Z,21.41
2018-09-12T12:45:37.137Z,21.73
2018-09-12T12:48:06.024Z,21.97
2018-09-12T12:50:34.576Z,21.76
2018-09-12T12:53:03.127Z,21.03
2018-09-12T12:55:31.804Z,21.20
2018-09-12T12:58:00.368Z,22.09
2018-09-12T13:00:29.372Z,21.87
2018-09-12T13:02:58.119Z,21.70
2018-09-12T13:05:26.720Z,21.72
2018-09-12T13:07:55.228Z,21.82
2018-09-12T13:10:23.891Z,22.10
2018-09-12T13:12:52.428Z,22.09
2018-09-12T13:15:20.988Z,21.93
2018-09-12T13:17:49.663Z,21.29
2018-09-12T13:20:18.237Z,21.83
2018-09-12T13:22:46.837Z,21.32
2018-09-12T13:25:15.508Z,21.97
2018-09-12T13:27:44.198Z,22.18
2018-09-12T13:30:13.540Z,21.59
2018-09-12T13:32:42.263Z,22.09
2018-09-12T13:35:10.928Z,22.09
2018-09-12T13:37:39.480Z,21.84
2018-09-12T13:40:08.096Z,22.17
2018-09-12T13:42:36.715Z,22.73
2018-09-12T13:45:05.354Z,22.59
2018-09-12T13:47:33.930Z,21.98
2018-09-12T13:50:02.503Z,22.17
2018-09-12T13:52:31.083Z,22.94
2018-09-12T13:54:59.771Z,22.38
2018-09-12T13:57:28.339Z,22.66
2018-09-12T13:59:56.883Z,22.52
2018-09-12T14:02:25.995Z,22.85
2018-09-12T14:04:54.991Z,22.63
2018-09-12T14:07:23.579Z,22.46
2018-09-12T14:09:52.159Z,22.89
2018-09-12T14:12:20.711Z,22.93
2018-09-12T14:14:49.274Z,22.36
2018-09-12T14:17:17.975Z,22.24
2018-09-12T14:19:46.536Z,22.74
2018-09-12T14:22:15.087Z,23.13
2018-09-12T14:24:43.875Z,24.11
2018-09-12T14:27:12.421Z,22.87
2018-09-12T14:29:40.979Z,22.25
2018-09-12T14:32:09.773Z,21.95
2018-09-12T14:34:38.283Z,23.07
2018-09-12T14:37:06.863Z,22.81
2018-09-12T14:39:35.557Z,22.49
2018-09-12T14:42:04.091Z,22.80
2018-09-12T14:44:32.656Z,22.92
2018-09-12T14:47:01.355Z,23.05
2018-09-12T14:49:29.899Z,23.89
2018-09-12T14:51:58.452Z,24.40
2018-09-12T14:54:27.145Z,24.13
2018-09-12T14:56:55.695Z,22.97
2018-09-12T14:59:24.256Z,23.64
2018-09-12T15:01:53.239Z,23.93
2018-09-12T15:04:21.835Z,23.77
2018-09-12T15:06:50.658Z,23.80
2018-09-12T15:09:19.268Z,23.35
2018-09-12T15:11:47.839Z,24.45
2018-09-12T15:14:16.412Z,23.98
2018-09-12T15:16:45.520Z,24.16
2018-09-12T15:19:14.160Z,25.14
2018-09-12T15:21:42.757Z,24.46
2018-09-12T15:24:11.364Z,24.61
2018-09-12T15:26:39.935Z,24.15
2018-09-12T15:29:08.655Z,24.19
2018-09-12T15:31:37.280Z,25.15
2018-09-12T15:34:05.883Z,24.57
2018-09-12T15:36:34.465Z,25.11
2018-09-12T15:39:03.212Z,24.63
2018-09-12T15:41:31.925Z,25.17
2018-09-12T15:44:00.374Z,25.12
2018-09-12T15:46:29.059Z,25.46
2018-09-12T15:48:57.636Z,25.31
2018-09-12T15:51:26.208Z,25.75
2018-09-12T15:53:55.269Z,25.74
2018-09-12T15:56:23.916Z,25.55
2018-09-12T15:58:52.475Z,25.93
2018-09-12T16:01:21.148Z,25.83
2018-09-12T16:03:49.770Z,26.12
2018-09-12T16:06:18.279Z,26.38
2018-09-12T16:08:46.947Z,26.84
2018-09-12T16:11:15.527Z,26.44
2018-09-12T16:13:44.080Z,27.15
2018-09-12T16:16:12.655Z,26.57
2018-09-12T16:18:41.207Z,26.83
2018-09-12T16:21:09.759Z,26.61
2018-09-12T16:23:38.367Z,26.76
2018-09-12T16:26:07.035Z,26.55
2018-09-12T16:28:35.588Z,27.08
2018-09-12T16:31:04.184Z,27.40
2018-09-12T16:33:32.743Z,26.98
2018-09-12T16:36:01.332Z,27.48
2018-09-12T16:38:30.023Z,27.15
2018-09-12T16:40:58.599Z,27.26
2018-09-12T16:43:27.183Z,27.06
2018-09-12T16:45:55.771Z,27.04
2018-09-12T16:48:24.327Z,26.67
2018-09-12T16:50:52.912Z,26.98
2018-09-12T16:53:21.495Z,27.48
2018-09-12T16:55:50.103Z,27.08
2018-09-12T16:58:18.671Z,27.61
2018-09-12T17:00:47.288Z,27.93
2018-09-12T17:03:15.831Z,27.74
2018-09-12T17:05:44.468Z,28.20
2018-09-12T17:08:13.060Z,28.28
2018-09-12T17:10:41.638Z,28.31
2018-09-12T17:13:10.191Z,28.43
2018-09-12T17:15:38.775Z,28.30
2018-09-12T17:18:07.352Z,28.72
2018-09-12T17:20:35.926Z,28.80
2018-09-12T17:23:04.559Z,29.13
2018-09-12T17:25:33.119Z,29.16
2018-09-12T17:28:01.678Z,29.54
2018-09-12T17:30:30.550Z,29.44
2018-09-12T17:32:59.220Z,29.56
2018-09-12T17:35:28.263Z,29.35
2018-09-12T17:37:56.987Z,29.99
2018-09-12T17:40:25.571Z,30.08
2018-09-12T17:42:54.156Z,29.84
2018-09-12T17:45:22.781Z,30.42
2018-09-12T17:47:51.435Z,29.87
2018-09-12T17:50:19.992Z,30.13
2018-09-12T17:52:48.946Z,30.10
2018-09-12T17:55:17.505Z,30.33
2018-09-12T17:57:46.076Z,31.08
2018-09-12T18:00:14.715Z,31.18
2018-09-12T18:02:43.283Z,31.24
2018-09-12T18:05:11.839Z,31.15
2018-09-12T18:07:40.527Z,32.11
2018-09-12T18:10:09.079Z,31.97
2018-09-12T18:12:37.649Z,32.64
2018-09-12T18:15:06.467Z,32.37
2018-09-12T18:17:35.045Z,33.61
2018-09-12T18:20:03.648Z,34.18
2018-09-12T18:22:32.240Z,34.08
2018-09-12T18:25:00.827Z,34.67
2018-09-12T18:27:29.451Z,34.76
2018-09-12T18:29:58.193Z,34.61
2018-09-12T18:32:26.795Z,34.73
2018-09-12T18:34:55.424Z,34.82
2018-09-12T18:37:24.111Z,35.28
2018-09-12T18:39:52.751Z,35.35
2018-09-12T18:42:21.294Z,35.10
2018-09-12T18:44:49.875Z,34.76
2018-09-12T18:47:18.679Z,34.79
2018-09-12T18:49:47.236Z,35.14
2018-09-12T18:52:15.833Z,35.24
2018-09-12T18:54:44.381Z,36.25
2018-09-12T18:57:12.947Z,37.28
2018-09-12T18:59:41.606Z,36.65
2018-09-12T19:02:10.164Z,37.33
2018-09-12T19:04:38.723Z,37.98
2018-09-12T19:07:08.016Z,37.84
2018-09-12T19:09:36.351Z,38.72
2018-09-12T19:12:04.919Z,38.21
2018-09-12T19:14:33.849Z,38.68
2018-09-12T19:17:02.408Z,39.03
2018-09-12T19:19:30.955Z,39.28
2018-09-12T19:21:59.559Z,40.36
2018-09-12T19:24:28.124Z,40.00
2018-09-12T19:26:56.696Z,40.44
2018-09-12T19:29:25.364Z,39.72
2018-09-12T19:31:53.908Z,39.24
2018-09-12T19:34:22.471Z,39.48
2018-09-12T19:36:51.060Z,39.34
2018-09-12T19:39:19.924Z,39.57
2018-09-12T19:41:48.592Z,39.83
2018-09-12T19:44:17.215Z,39.80
2018-09-12T19:46:45.763Z,39.51
2018-09-12T19:49:14.328Z,39.65
2018-09-12T19:51:42.939Z,40.03
2018-09-12T19:54:11.916Z,40.51
2018-09-12T19:56:40.455Z,40.42
2018-09-12T19:59:09.076Z,40.08
2018-09-12T20:01:37.624Z,40.37
2018-09-12T20:04:06.683Z,41.86
2018-09-12T20:06:35.402Z,41.78
2018-09-12T20:09:04.959Z,41.90
2018-09-12T20:11:33.604Z,42.06
2018-09-12T20:14:02.500Z,42.43
2018-09-12T20:16:31.115Z,41.82
2018-09-12T20:18:59.711Z,41.57
2018-09-12T20:21:28.291Z,42.57
2018-09-12T20:23:56.980Z,43.14
2018-09-12T20:26:25.427Z,44.67
2018-09-12T20:28:54.284Z,44.29
2018-09-12T20:31:22.828Z,46.96
2018-09-12T20:33:51.368Z,48.23
2018-09-12T20:36:19.979Z,48.04
2018-09-12T20:38:48.540Z,46.82
2018-09-12T20:41:17.111Z,46.72
2018-09-12T20:43:45.787Z,47.18
2018-09-12T20:46:14.344Z,49.00
2018-09-12T20:48:42.957Z,50.61
2018-09-12T20:51:11.816Z,51.21
2018-09-12T20:53:40.381Z,51.50
2018-09-12T20:56:09.101Z,51.75
2018-09-12T20:58:37.704Z,52.55
2018-09-12T21:01:06.379Z,52.26
2018-09-12T21:03:34.930Z,52.37
2018-09-12T21:06:04.527Z,52.55
2018-09-12T21:08:33.099Z,53.21
2018-09-12T21:11:01.675Z,53.05
2018-09-12T21:13:30.252Z,52.45
2018-09-12T21:15:58.807Z,52.40
2018-09-12T21:18:27.376Z,53.10
2018-09-12T21:20:55.995Z,52.72
2018-09-12T21:23:24.557Z,53.73
2018-09-12T21:25:53.115Z,53.40
2018-09-12T21:28:21.787Z,53.19
2018-09-12T21:30:50.388Z,53.02
2018-09-12T21:33:19.023Z,53.07
2018-09-12T21:35:48.052Z,53.72
2018-09-12T21:38:16.631Z,54.43
2018-09-12T21:40:45.285Z,54.46
2018-09-12T21:43:14.227Z,55.03
2018-09-12T21:45:42.799Z,55.20
2018-09-12T21:48:11.359Z,55.15
2018-09-12T21:50:39.951Z,55.29
2018-09-12T21:53:08.499Z,55.01
2018-09-12T21:55:37.088Z,55.58
2018-09-12T21:58:05.967Z,55.51
2018-09-12T22:00:34.571Z,55.63
2018-09-12T22:03:03.154Z,55.64
2018-09-12T22:05:31.734Z,56.43
2018-09-12T22:08:00.342Z,56.63
2018-09-12T22:10:28.880Z,56.58
2018-09-12T22:12:57.483Z,56.89
2018-09-12T22:15:26.042Z,57.21
2018-09-12T22:17:54.588Z,57.09
2018-09-12T22:20:23.594Z,57.34
2018-09-12T22:22:52.180Z,57.36
2018-09-12T22:25:20.742Z,57.22
2018-09-12T22:27:49.498Z,57.92
2018-09-12T22:30:18.056Z,58.28
2018-09-12T22:32:46.636Z,58.20
2018-09-12T22:35:15.624Z,57.76
2018-09-12T22:37:44.619Z,58.81
2018-09-12T22:40:13.264Z,59.07
2018-09-12T22:42:41.855Z,58.52
2018-09-12T22:45:10.427Z,59.47
2018-09-12T22:47:39.007Z,59.91
2018-09-12T22:50:07.771Z,60.39
2018-09-12T22:52:36.327Z,60.85
2018-09-12T22:55:04.960Z,60.87
2018-09-12T22:57:33.631Z,60.70
2018-09-12T23:00:02.187Z,60.12
2018-09-12T23:02:30.739Z,60.34
2018-09-12T23:04:59.369Z,59.56
2018-09-12T23:07:27.919Z,59.87
2018-09-12T23:09:56.484Z,59.75
2018-09-12T23:12:25.144Z,59.80
2018-09-12T23:14:53.707Z,59.87
2018-09-12T23:17:22.259Z,59.62
2018-09-12T23:19:50.963Z,59.78
2018-09-12T23:22:19.522Z,59.25
2018-09-12T23:24:48.070Z,59.82
2018-09-12T23:27:16.647Z,59.22
2018-09-12T23:29:45.204Z,59.74
2018-09-12T23:32:13.759Z,59.20
2018-09-12T23:34:42.439Z,59.23
2018-09-12T23:37:10.993Z,59.36
2018-09-12T23:39:39.544Z,59.41
2018-09-12T23:42:08.218Z,59.44
2018-09-12T23:44:36.764Z,59.47
2018-09-12T23:47:05.323Z,59.14
2018-09-12T23:49:33.905Z,58.70
2018-09-12T23:52:02.533Z,58.65
2018-09-12T23:54:31.167Z,59.18
2018-09-12T23:56:59.968Z,59.01
2018-09-12T23:59:28.524Z,58.99
